createdAt,value
2017-08-01T09:22:15.420Z,0.4
2017-08-01T09:23:18.127Z,0.4
2017-08-01T09:24:15.096Z,0.4
2017-08-01T09:25:20.518Z,0.4
2017-08-01T09:26:18.745Z,0.3
2017-08-01T09:27:17.959Z,0.3
2017-08-01T09:28:18.360Z,0.3
2017-08-01T09:29:16.482Z,0.3
2017-08-01T09:30:18.903Z,0.3
2017-08-01T09:31:20.126Z,0.3
2017-08-01T09:32:15.239Z,0.3
2017-08-01T09:33:15.447Z,0.3
2017-08-01T09:34:17.392Z,0.2
2017-08-01T09:35:11.268Z,0.2
2017-08-01T09:36:19.777Z,0.3
2017-08-01T09:37:15.840Z,0.3
2017-08-01T09:38:15.373Z,0.3
2017-08-01T09:39:18.277Z,0.3
2017-08-01T09:40:14.819Z,0.3
2017-08-01T09:41:09.755Z,0.3
2017-08-01T09:42:14.230Z,0.4
2017-08-01T09:43:14.000Z,0.4
2017-08-01T09:44:17.898Z,0.4
2017-08-01T09:45:25.569Z,0.5
2017-08-01T09:47:21.646Z,0.5
2017-08-01T09:48:21.715Z,0.5
2017-08-01T09:49:21.146Z,0.5
2017-08-01T09:51:10.502Z,0.6
2017-08-01T09:53:17.987Z,0.6
2017-08-01T09:54:20.087Z,0.6
2017-08-01T09:55:25.409Z,0.7
2017-08-01T09:56:30.936Z,0.6
2017-08-01T09:57:17.400Z,0.6
2017-08-01T09:59:13.387Z,0.5
2017-08-01T10:00:12.936Z,0.5
2017-08-01T10:01:15.432Z,0.5
2017-08-01T10:02:19.999Z,0.5
2017-08-01T10:03:11.432Z,0.5
2017-08-01T10:04:11.184Z,0.5
2017-08-01T10:05:11.463Z,0.5
2017-08-01T10:06:10.444Z,0.6
2017-08-01T10:07:11.500Z,0.8
2017-08-01T10:08:14.104Z,1
2017-08-01T10:09:11.284Z,1
2017-08-01T10:10:10.147Z,1.2
2017-08-01T10:11:17.621Z,1.2
2017-08-01T10:12:13.679Z,1
2017-08-01T10:13:13.464Z,0.9
2017-08-01T10:14:12.250Z,0.8
2017-08-01T10:15:16.232Z,0.9
2017-08-01T10:16:13.182Z,0.8
2017-08-01T10:17:11.704Z,0.8
2017-08-01T10:18:14.538Z,0.9
2017-08-01T10:19:15.330Z,7.2
2017-08-01T10:20:15.946Z,7.5
2017-08-01T10:21:11.193Z,6.4
2017-08-01T10:22:16.584Z,6.5
2017-08-01T10:23:19.026Z,5.9
2017-08-01T10:24:14.660Z,6.6
2017-08-01T10:25:17.554Z,4.2
2017-08-01T10:26:16.454Z,2.3
2017-08-01T10:27:11.258Z,2.2
